sensor_id;sensor_type;location;lat;lon;timestamp;temperature;humidity
21662;DHT22;10992;48.170;8.596;2022-12-18T00:01:27;-7.70;99.90
21662;DHT22;10992;48.170;8.596;2022-12-18T00:03:55;-7.70;99.90
21662;DHT22;10992;48.170;8.596;2022-12-18T00:06:24;-7.70;99.90
21662;DHT22;10992;48.170;8.596;2022-12-18T00:08:51;-7.70;99.90
21662;DHT22;10992;48.170;8.596;2022-12-18T00:11:21;-7.70;99.90
21662;DHT22;10992;48.170;8.596;2022-12-18T00:13:49;-7.60;99.90
21662;DHT22;10992;48.170;8.596;2022-12-18T00:16:18;-7.70;99.90
21662;DHT22;10992;48.170;8.596;2022-12-18T00:18:50;-7.70;99.90
21662;DHT22;10992;48.170;8.596;2022-12-18T00:21:18;-7.70;99.90
21662;DHT22;10992;48.170;8.596;2022-12-18T00:23:47;-7.70;99.90
21662;DHT22;10992;48.170;8.596;2022-12-18T00:26:19;-7.80;99.90
21662;DHT22;10992;48.170;8.596;2022-12-18T00:28:49;-7.80;99.90
21662;DHT22;10992;48.170;8.596;2022-12-18T00:31:19;-7.90;99.90
21662;DHT22;10992;48.170;8.596;2022-12-18T00:33:46;-8.00;99.90
21662;DHT22;10992;48.170;8.596;2022-12-18T00:36:21;-8.10;99.90
21662;DHT22;10992;48.170;8.596;2022-12-18T00:38:51;-8.10;99.90
21662;DHT22;10992;48.170;8.596;2022-12-18T00:41:18;-8.20;99.90
21662;DHT22;10992;48.170;8.596;2022-12-18T00:44:07;-8.30;99.90
21662;DHT22;10992;48.170;8.596;2022-12-18T00:46:34;-8.30;99.90
21662;DHT22;10992;48.170;8.596;2022-12-18T00:49:01;-8.30;99.90
21662;DHT22;10992;48.170;8.596;2022-12-18T00:51:28;-8.30;99.90
21662;DHT22;10992;48.170;8.596;2022-12-18T00:53:55;-8.30;99.90
21662;DHT22;10992;48.170;8.596;2022-12-18T00:56:23;-8.30;99.90
21662;DHT22;10992;48.170;8.596;2022-12-18T00:58:50;-8.20;99.90
21662;DHT22;10992;48.170;8.596;2022-12-18T01:01:17;-8.10;99.90
21662;DHT22;10992;48.170;8.596;2022-12-18T01:03:45;-8.00;99.90
21662;DHT22;10992;48.170;8.596;2022-12-18T01:06:14;-7.90;99.90
21662;DHT22;10992;48.170;8.596;2022-12-18T01:08:42;-7.80;99.90
21662;DHT22;10992;48.170;8.596;2022-12-18T01:11:14;-7.70;99.90
21662;DHT22;10992;48.170;8.596;2022-12-18T01:13:42;-7.70;99.90
21662;DHT22;10992;48.170;8.596;2022-12-18T01:16:15;-7.70;99.90
21662;DHT22;10992;48.170;8.596;2022-12-18T01:18:42;-7.70;99.90
21662;DHT22;10992;48.170;8.596;2022-12-18T01:21:13;-7.60;99.90
21662;DHT22;10992;48.170;8.596;2022-12-18T01:23:40;-7.60;99.90
21662;DHT22;10992;48.170;8.596;2022-12-18T01:26:11;-7.60;99.90
21662;DHT22;10992;48.170;8.596;2022-12-18T01:28:38;-7.60;99.90
21662;DHT22;10992;48.170;8.596;2022-12-18T01:31:17;-7.60;99.90
21662;DHT22;10992;48.170;8.596;2022-12-18T01:33:45;-7.60;99.90
21662;DHT22;10992;48.170;8.596;2022-12-18T01:36:16;-7.60;99.90
21662;DHT22;10992;48.170;8.596;2022-12-18T01:38:43;-7.60;99.90
21662;DHT22;10992;48.170;8.596;2022-12-18T01:41:10;-7.50;99.90
21662;DHT22;10992;48.170;8.596;2022-12-18T01:43:49;-7.50;99.90
21662;DHT22;10992;48.170;8.596;2022-12-18T01:46:19;-7.50;99.90
21662;DHT22;10992;48.170;8.596;2022-12-18T01:48:49;-7.50;99.90
21662;DHT22;10992;48.170;8.596;2022-12-18T01:51:17;-7.40;99.90
21662;DHT22;10992;48.170;8.596;2022-12-18T01:53:44;-7.40;99.90
21662;DHT22;10992;48.170;8.596;2022-12-18T01:56:14;-7.40;99.90
21662;DHT22;10992;48.170;8.596;2022-12-18T01:58:52;-7.40;99.90
21662;DHT22;10992;48.170;8.596;2022-12-18T02:01:22;-7.30;99.90
21662;DHT22;10992;48.170;8.596;2022-12-18T02:03:51;-7.30;99.90
21662;DHT22;10992;48.170;8.596;2022-12-18T02:09:18;-7.30;99.90
21662;DHT22;10992;48.170;8.596;2022-12-18T02:12:16;-7.40;99.90
21662;DHT22;10992;48.170;8.596;2022-12-18T02:17:31;-7.40;99.90
21662;DHT22;10992;48.170;8.596;2022-12-18T02:20:21;-7.30;99.90
21662;DHT22;10992;48.170;8.596;2022-12-18T02:23:29;-7.30;99.90
21662;DHT22;10992;48.170;8.596;2022-12-18T02:26:06;-7.30;99.90
21662;DHT22;10992;48.170;8.596;2022-12-18T02:28:55;-7.40;99.90
21662;DHT22;10992;48.170;8.596;2022-12-18T02:31:28;-7.40;99.90
21662;DHT22;10992;48.170;8.596;2022-12-18T02:34:00;-7.40;99.90
21662;DHT22;10992;48.170;8.596;2022-12-18T02:36:36;-7.30;99.90
21662;DHT22;10992;48.170;8.596;2022-12-18T02:39:05;-7.30;99.90
21662;DHT22;10992;48.170;8.596;2022-12-18T02:41:36;-7.20;99.90
21662;DHT22;10992;48.170;8.596;2022-12-18T02:44:11;-7.20;99.90
21662;DHT22;10992;48.170;8.596;2022-12-18T02:46:41;-7.10;99.90
21662;DHT22;10992;48.170;8.596;2022-12-18T02:49:30;-7.10;99.90
21662;DHT22;10992;48.170;8.596;2022-12-18T02:54:54;-7.00;99.90
21662;DHT22;10992;48.170;8.596;2022-12-18T03:00:03;-7.00;99.90
21662;DHT22;10992;48.170;8.596;2022-12-18T03:05:33;-6.90;99.90
21662;DHT22;10992;48.170;8.596;2022-12-18T03:08:07;-6.90;99.90
21662;DHT22;10992;48.170;8.596;2022-12-18T03:10:49;-6.90;99.90
21662;DHT22;10992;48.170;8.596;2022-12-18T03:13:28;-6.90;99.90
21662;DHT22;10992;48.170;8.596;2022-12-18T03:15:59;-6.90;99.90
21662;DHT22;10992;48.170;8.596;2022-12-18T03:18:53;-6.90;99.90
21662;DHT22;10992;48.170;8.596;2022-12-18T03:21:28;-6.90;99.90
21662;DHT22;10992;48.170;8.596;2022-12-18T03:23:57;-6.80;99.90
21662;DHT22;10992;48.170;8.596;2022-12-18T03:26:26;-6.80;99.90
21662;DHT22;10992;48.170;8.596;2022-12-18T03:29:43;-6.70;99.90
21662;DHT22;10992;48.170;8.596;2022-12-18T03:32:15;-6.70;99.90
21662;DHT22;10992;48.170;8.596;2022-12-18T03:34:43;-6.70;99.90
21662;DHT22;10992;48.170;8.596;2022-12-18T03:37:15;-6.70;99.90
21662;DHT22;10992;48.170;8.596;2022-12-18T03:39:42;-6.70;99.90
21662;DHT22;10992;48.170;8.596;2022-12-18T03:45:03;-6.60;99.90
21662;DHT22;10992;48.170;8.596;2022-12-18T03:50:24;-6.60;99.90
21662;DHT22;10992;48.170;8.596;2022-12-18T03:52:57;-6.50;99.90
21662;DHT22;10992;48.170;8.596;2022-12-18T03:55:30;-6.40;99.90
21662;DHT22;10992;48.170;8.596;2022-12-18T03:58:04;-6.40;99.90
21662;DHT22;10992;48.170;8.596;2022-12-18T04:00:48;-6.30;99.90
21662;DHT22;10992;48.170;8.596;2022-12-18T04:03:17;-6.30;99.90
21662;DHT22;10992;48.170;8.596;2022-12-18T04:05:52;-6.30;99.90
21662;DHT22;10992;48.170;8.596;2022-12-18T04:08:21;-6.30;99.90
21662;DHT22;10992;48.170;8.596;2022-12-18T04:11:00;-6.30;99.90
21662;DHT22;10992;48.170;8.596;2022-12-18T04:13:34;-6.20;99.90
21662;DHT22;10992;48.170;8.596;2022-12-18T04:16:06;-6.30;99.90
21662;DHT22;10992;48.170;8.596;2022-12-18T04:18:34;-6.30;99.90
21662;DHT22;10992;48.170;8.596;2022-12-18T04:21:02;-6.30;99.90
21662;DHT22;10992;48.170;8.596;2022-12-18T04:23:29;-6.30;99.90
21662;DHT22;10992;48.170;8.596;2022-12-18T04:25:58;-6.30;99.90
21662;DHT22;10992;48.170;8.596;2022-12-18T04:28:43;-6.30;99.90
21662;DHT22;10992;48.170;8.596;2022-12-18T04:31:11;-6.30;99.90
21662;DHT22;10992;48.170;8.596;2022-12-18T04:33:39;-6.30;99.90
21662;DHT22;10992;48.170;8.596;2022-12-18T04:36:07;-6.30;99.90
21662;DHT22;10992;48.170;8.596;2022-12-18T04:38:34;-6.30;99.90
21662;DHT22;10992;48.170;8.596;2022-12-18T04:41:06;-6.40;99.90
21662;DHT22;10992;48.170;8.596;2022-12-18T04:43:35;-6.40;99.90
21662;DHT22;10992;48.170;8.596;2022-12-18T04:46:06;-6.40;99.90
21662;DHT22;10992;48.170;8.596;2022-12-18T04:48:34;-6.40;99.90
21662;DHT22;10992;48.170;8.596;2022-12-18T04:51:02;-6.40;99.90
21662;DHT22;10992;48.170;8.596;2022-12-18T04:53:29;-6.40;99.90
21662;DHT22;10992;48.170;8.596;2022-12-18T04:58:30;-6.30;99.90
21662;DHT22;10992;48.170;8.596;2022-12-18T05:00:57;-6.30;99.90
21662;DHT22;10992;48.170;8.596;2022-12-18T05:03:24;-6.30;99.90
21662;DHT22;10992;48.170;8.596;2022-12-18T05:05:50;-6.40;99.90
21662;DHT22;10992;48.170;8.596;2022-12-18T05:08:18;-6.40;99.90
21662;DHT22;10992;48.170;8.596;2022-12-18T05:10:45;-6.40;99.90
21662;DHT22;10992;48.170;8.596;2022-12-18T05:13:12;-6.40;99.90
21662;DHT22;10992;48.170;8.596;2022-12-18T05:15:39;-6.40;99.90
21662;DHT22;10992;48.170;8.596;2022-12-18T05:18:06;-6.30;99.90
21662;DHT22;10992;48.170;8.596;2022-12-18T05:20:33;-6.30;99.90
21662;DHT22;10992;48.170;8.596;2022-12-18T05:23:00;-6.30;99.90
21662;DHT22;10992;48.170;8.596;2022-12-18T05:25:27;-6.30;99.90
21662;DHT22;10992;48.170;8.596;2022-12-18T05:27:53;-6.30;99.90
21662;DHT22;10992;48.170;8.596;2022-12-18T05:30:20;-6.30;99.90
21662;DHT22;10992;48.170;8.596;2022-12-18T05:32:47;-6.30;99.90
21662;DHT22;10992;48.170;8.596;2022-12-18T05:35:14;-6.30;99.90
21662;DHT22;10992;48.170;8.596;2022-12-18T05:37:41;-6.30;99.90
21662;DHT22;10992;48.170;8.596;2022-12-18T05:40:09;-6.30;99.90
21662;DHT22;10992;48.170;8.596;2022-12-18T05:42:37;-6.30;99.90
21662;DHT22;10992;48.170;8.596;2022-12-18T05:45:05;-6.30;99.90
21662;DHT22;10992;48.170;8.596;2022-12-18T05:47:32;-6.30;99.90
21662;DHT22;10992;48.170;8.596;2022-12-18T05:49:59;-6.20;99.90
21662;DHT22;10992;48.170;8.596;2022-12-18T05:52:26;-6.20;99.90
21662;DHT22;10992;48.170;8.596;2022-12-18T05:54:53;-6.20;99.90
21662;DHT22;10992;48.170;8.596;2022-12-18T05:57:20;-6.20;99.90
21662;DHT22;10992;48.170;8.596;2022-12-18T05:59:47;-6.20;99.90
21662;DHT22;10992;48.170;8.596;2022-12-18T06:02:13;-6.20;99.90
21662;DHT22;10992;48.170;8.596;2022-12-18T06:04:40;-6.20;99.90
21662;DHT22;10992;48.170;8.596;2022-12-18T06:07:08;-6.20;99.90
21662;DHT22;10992;48.170;8.596;2022-12-18T06:09:34;-6.10;99.90
21662;DHT22;10992;48.170;8.596;2022-12-18T06:12:01;-6.10;99.90
21662;DHT22;10992;48.170;8.596;2022-12-18T06:14:28;-6.10;99.90
21662;DHT22;10992;48.170;8.596;2022-12-18T06:16:55;-6.10;99.90
21662;DHT22;10992;48.170;8.596;2022-12-18T06:19:22;-6.10;99.90
21662;DHT22;10992;48.170;8.596;2022-12-18T06:21:49;-6.00;99.90
21662;DHT22;10992;48.170;8.596;2022-12-18T06:24:17;-6.00;99.90
21662;DHT22;10992;48.170;8.596;2022-12-18T06:26:43;-6.10;99.90
21662;DHT22;10992;48.170;8.596;2022-12-18T06:29:10;-6.10;99.90
21662;DHT22;10992;48.170;8.596;2022-12-18T06:31:37;-6.00;99.90
21662;DHT22;10992;48.170;8.596;2022-12-18T06:34:04;-6.00;99.90
21662;DHT22;10992;48.170;8.596;2022-12-18T06:36:31;-6.00;99.90
21662;DHT22;10992;48.170;8.596;2022-12-18T06:38:58;-6.00;99.90
21662;DHT22;10992;48.170;8.596;2022-12-18T06:41:26;-6.00;99.90
21662;DHT22;10992;48.170;8.596;2022-12-18T06:43:53;-6.00;99.90
21662;DHT22;10992;48.170;8.596;2022-12-18T06:46:26;-6.10;99.90
21662;DHT22;10992;48.170;8.596;2022-12-18T06:48:53;-6.00;99.90
21662;DHT22;10992;48.170;8.596;2022-12-18T06:51:21;-6.00;99.90
21662;DHT22;10992;48.170;8.596;2022-12-18T06:53:48;-6.00;99.90
21662;DHT22;10992;48.170;8.596;2022-12-18T06:56:15;-6.00;99.90
21662;DHT22;10992;48.170;8.596;2022-12-18T06:58:42;-6.00;99.90
21662;DHT22;10992;48.170;8.596;2022-12-18T07:01:11;-6.00;99.90
21662;DHT22;10992;48.170;8.596;2022-12-18T07:03:39;-6.00;99.90
21662;DHT22;10992;48.170;8.596;2022-12-18T07:06:14;-5.90;99.90
21662;DHT22;10992;48.170;8.596;2022-12-18T07:08:41;-5.90;99.90
21662;DHT22;10992;48.170;8.596;2022-12-18T07:11:08;-5.90;99.90
21662;DHT22;10992;48.170;8.596;2022-12-18T07:13:35;-5.90;99.90
21662;DHT22;10992;48.170;8.596;2022-12-18T07:16:11;-5.90;99.90
21662;DHT22;10992;48.170;8.596;2022-12-18T07:18:48;-5.90;99.90
21662;DHT22;10992;48.170;8.596;2022-12-18T07:21:18;-5.90;99.90
21662;DHT22;10992;48.170;8.596;2022-12-18T07:23:45;-5.90;99.90
21662;DHT22;10992;48.170;8.596;2022-12-18T07:26:17;-5.90;99.90
21662;DHT22;10992;48.170;8.596;2022-12-18T07:28:44;-5.80;99.90
21662;DHT22;10992;48.170;8.596;2022-12-18T07:31:14;-5.80;99.90
21662;DHT22;10992;48.170;8.596;2022-12-18T07:33:42;-5.80;99.90
21662;DHT22;10992;48.170;8.596;2022-12-18T07:36:11;-5.80;99.90
21662;DHT22;10992;48.170;8.596;2022-12-18T07:38:38;-5.70;99.90
21662;DHT22;10992;48.170;8.596;2022-12-18T07:41:10;-5.10;99.90
21662;DHT22;10992;48.170;8.596;2022-12-18T07:43:38;-5.00;99.90
21662;DHT22;10992;48.170;8.596;2022-12-18T07:46:08;-5.00;99.90
21662;DHT22;10992;48.170;8.596;2022-12-18T07:48:35;-5.30;99.90
21662;DHT22;10992;48.170;8.596;2022-12-18T07:51:04;-5.40;99.90
21662;DHT22;10992;48.170;8.596;2022-12-18T07:53:33;-5.50;99.90
21662;DHT22;10992;48.170;8.596;2022-12-18T07:56:06;-5.50;99.90
21662;DHT22;10992;48.170;8.596;2022-12-18T07:58:53;-5.60;99.90
21662;DHT22;10992;48.170;8.596;2022-12-18T08:01:20;-5.70;99.90
21662;DHT22;10992;48.170;8.596;2022-12-18T08:03:47;-5.70;99.90
21662;DHT22;10992;48.170;8.596;2022-12-18T08:06:16;-5.70;99.90
21662;DHT22;10992;48.170;8.596;2022-12-18T08:08:43;-5.70;99.90
21662;DHT22;10992;48.170;8.596;2022-12-18T08:11:10;-5.40;99.90
21662;DHT22;10992;48.170;8.596;2022-12-18T08:13:37;-5.60;99.90
21662;DHT22;10992;48.170;8.596;2022-12-18T08:16:06;-5.60;99.90
21662;DHT22;10992;48.170;8.596;2022-12-18T08:18:37;-5.50;99.90
21662;DHT22;10992;48.170;8.596;2022-12-18T08:21:11;-5.50;99.90
21662;DHT22;10992;48.170;8.596;2022-12-18T08:23:39;-5.60;99.90
21662;DHT22;10992;48.170;8.596;2022-12-18T08:26:09;-5.60;99.90
21662;DHT22;10992;48.170;8.596;2022-12-18T08:28:36;-5.60;99.90
21662;DHT22;10992;48.170;8.596;2022-12-18T08:31:03;-5.70;99.90
21662;DHT22;10992;48.170;8.596;2022-12-18T08:33:31;-5.60;99.90
21662;DHT22;10992;48.170;8.596;2022-12-18T08:35:59;-5.60;99.90
21662;DHT22;10992;48.170;8.596;2022-12-18T08:38:26;-5.60;99.90
21662;DHT22;10992;48.170;8.596;2022-12-18T08:41:00;-5.60;99.90
21662;DHT22;10992;48.170;8.596;2022-12-18T08:43:27;-5.50;99.90
21662;DHT22;10992;48.170;8.596;2022-12-18T08:46:12;-5.50;99.90
21662;DHT22;10992;48.170;8.596;2022-12-18T08:48:43;-5.40;99.90
21662;DHT22;10992;48.170;8.596;2022-12-18T08:51:10;-5.30;99.90
21662;DHT22;10992;48.170;8.596;2022-12-18T08:53:37;-5.40;99.90
21662;DHT22;10992;48.170;8.596;2022-12-18T08:56:05;-5.30;99.90
21662;DHT22;10992;48.170;8.596;2022-12-18T08:58:32;-5.30;99.90
21662;DHT22;10992;48.170;8.596;2022-12-18T09:01:05;-5.20;99.90
21662;DHT22;10992;48.170;8.596;2022-12-18T09:03:32;-5.30;99.90
21662;DHT22;10992;48.170;8.596;2022-12-18T09:05:59;-5.30;99.90
21662;DHT22;10992;48.170;8.596;2022-12-18T09:08:27;-5.20;99.90
21662;DHT22;10992;48.170;8.596;2022-12-18T09:10:53;-5.20;99.90
21662;DHT22;10992;48.170;8.596;2022-12-18T09:13:22;-5.10;99.90
21662;DHT22;10992;48.170;8.596;2022-12-18T09:15:51;-5.00;99.90
21662;DHT22;10992;48.170;8.596;2022-12-18T09:18:20;-5.00;99.90
21662;DHT22;10992;48.170;8.596;2022-12-18T09:20:47;-5.00;99.90
21662;DHT22;10992;48.170;8.596;2022-12-18T09:23:14;-5.00;99.90
21662;DHT22;10992;48.170;8.596;2022-12-18T09:25:41;-5.00;99.90
21662;DHT22;10992;48.170;8.596;2022-12-18T09:28:16;-5.10;99.90
21662;DHT22;10992;48.170;8.596;2022-12-18T09:30:52;-5.00;99.90
21662;DHT22;10992;48.170;8.596;2022-12-18T09:33:19;-5.00;99.90
21662;DHT22;10992;48.170;8.596;2022-12-18T09:35:46;-4.90;99.90
21662;DHT22;10992;48.170;8.596;2022-12-18T09:38:15;-4.90;99.90
21662;DHT22;10992;48.170;8.596;2022-12-18T09:43:18;-4.90;99.90
21662;DHT22;10992;48.170;8.596;2022-12-18T09:45:53;-4.80;99.90
21662;DHT22;10992;48.170;8.596;2022-12-18T09:48:31;-4.80;99.90
21662;DHT22;10992;48.170;8.596;2022-12-18T09:51:05;-4.70;99.90
21662;DHT22;10992;48.170;8.596;2022-12-18T09:53:38;-4.70;99.90
21662;DHT22;10992;48.170;8.596;2022-12-18T09:56:15;-4.70;99.90
21662;DHT22;10992;48.170;8.596;2022-12-18T09:59:01;-4.60;99.90
21662;DHT22;10992;48.170;8.596;2022-12-18T10:01:31;-4.60;99.90
21662;DHT22;10992;48.170;8.596;2022-12-18T10:04:10;-4.60;99.90
21662;DHT22;10992;48.170;8.596;2022-12-18T10:12:08;-4.30;99.90
21662;DHT22;10992;48.170;8.596;2022-12-18T10:14:59;-4.30;99.90
21662;DHT22;10992;48.170;8.596;2022-12-18T10:17:33;-4.40;99.90
21662;DHT22;10992;48.170;8.596;2022-12-18T10:20:13;-4.30;99.90
21662;DHT22;10992;48.170;8.596;2022-12-18T10:27:46;-4.00;99.90
21662;DHT22;10992;48.170;8.596;2022-12-18T10:30:15;-3.90;99.90
21662;DHT22;10992;48.170;8.596;2022-12-18T10:32:42;-4.00;99.90
21662;DHT22;10992;48.170;8.596;2022-12-18T10:35:27;-4.10;99.90
21662;DHT22;10992;48.170;8.596;2022-12-18T10:41:01;-4.00;99.90
21662;DHT22;10992;48.170;8.596;2022-12-18T10:43:31;-3.90;99.90
21662;DHT22;10992;48.170;8.596;2022-12-18T10:51:07;-3.90;99.90
21662;DHT22;10992;48.170;8.596;2022-12-18T10:53:41;-3.90;99.90
21662;DHT22;10992;48.170;8.596;2022-12-18T10:56:09;-3.90;99.90
21662;DHT22;10992;48.170;8.596;2022-12-18T10:58:37;-3.90;99.90
21662;DHT22;10992;48.170;8.596;2022-12-18T11:01:14;-3.80;99.90
21662;DHT22;10992;48.170;8.596;2022-12-18T11:03:45;-3.60;99.90
21662;DHT22;10992;48.170;8.596;2022-12-18T11:06:17;-3.40;99.90
21662;DHT22;10992;48.170;8.596;2022-12-18T11:08:58;-3.40;99.90
21662;DHT22;10992;48.170;8.596;2022-12-18T11:11:25;-3.40;99.90
21662;DHT22;10992;48.170;8.596;2022-12-18T11:14:02;-3.50;99.90
21662;DHT22;10992;48.170;8.596;2022-12-18T11:16:36;-3.50;99.90
21662;DHT22;10992;48.170;8.596;2022-12-18T11:19:33;-3.40;99.90
21662;DHT22;10992;48.170;8.596;2022-12-18T11:22:02;-3.20;99.90
21662;DHT22;10992;48.170;8.596;2022-12-18T11:24:33;-3.00;99.90
21662;DHT22;10992;48.170;8.596;2022-12-18T11:27:05;-2.80;99.90
21662;DHT22;10992;48.170;8.596;2022-12-18T11:29:37;-2.80;99.90
21662;DHT22;10992;48.170;8.596;2022-12-18T11:34:46;-3.00;99.90
21662;DHT22;10992;48.170;8.596;2022-12-18T11:37:14;-3.20;99.90
21662;DHT22;10992;48.170;8.596;2022-12-18T11:39:46;-3.30;99.90
21662;DHT22;10992;48.170;8.596;2022-12-18T11:48:02;-3.50;99.90
21662;DHT22;10992;48.170;8.596;2022-12-18T11:52:57;-3.50;99.90
21662;DHT22;10992;48.170;8.596;2022-12-18T11:55:51;-3.20;99.90
21662;DHT22;10992;48.170;8.596;2022-12-18T11:58:33;-3.00;99.90
21662;DHT22;10992;48.170;8.596;2022-12-18T12:09:04;-3.20;99.90
21662;DHT22;10992;48.170;8.596;2022-12-18T12:11:43;-3.40;99.90
21662;DHT22;10992;48.170;8.596;2022-12-18T12:20:28;-3.10;99.90
21662;DHT22;10992;48.170;8.596;2022-12-18T12:23:12;-3.00;99.90
21662;DHT22;10992;48.170;8.596;2022-12-18T12:25:50;-3.20;99.90
21662;DHT22;10992;48.170;8.596;2022-12-18T12:34:04;-3.10;99.90
21662;DHT22;10992;48.170;8.596;2022-12-18T12:36:58;-3.00;99.90
21662;DHT22;10992;48.170;8.596;2022-12-18T12:39:35;-3.00;99.90
21662;DHT22;10992;48.170;8.596;2022-12-18T12:42:14;-3.10;99.90
21662;DHT22;10992;48.170;8.596;2022-12-18T12:45:02;-3.30;99.90
21662;DHT22;10992;48.170;8.596;2022-12-18T12:47:38;-3.40;99.90
21662;DHT22;10992;48.170;8.596;2022-12-18T12:50:14;-3.50;99.90
21662;DHT22;10992;48.170;8.596;2022-12-18T12:52:52;-3.40;99.90
21662;DHT22;10992;48.170;8.596;2022-12-18T12:55:24;-3.40;99.90
21662;DHT22;10992;48.170;8.596;2022-12-18T13:01:28;-3.40;99.90
21662;DHT22;10992;48.170;8.596;2022-12-18T13:04:15;-3.50;99.90
21662;DHT22;10992;48.170;8.596;2022-12-18T13:06:47;-3.40;99.90
21662;DHT22;10992;48.170;8.596;2022-12-18T13:09:15;-3.50;99.90
21662;DHT22;10992;48.170;8.596;2022-12-18T13:11:45;-3.50;99.90
21662;DHT22;10992;48.170;8.596;2022-12-18T13:14:40;-3.50;99.90
21662;DHT22;10992;48.170;8.596;2022-12-18T13:22:37;-3.60;99.90
21662;DHT22;10992;48.170;8.596;2022-12-18T13:25:37;-3.50;99.90
21662;DHT22;10992;48.170;8.596;2022-12-18T13:28:09;-3.30;99.90
21662;DHT22;10992;48.170;8.596;2022-12-18T13:43:37;-3.30;99.90
21662;DHT22;10992;48.170;8.596;2022-12-18T13:46:24;-3.30;99.90
21662;DHT22;10992;48.170;8.596;2022-12-18T13:48:56;-3.20;99.90
21662;DHT22;10992;48.170;8.596;2022-12-18T13:51:25;-3.30;99.90
21662;DHT22;10992;48.170;8.596;2022-12-18T13:54:06;-3.30;99.90
21662;DHT22;10992;48.170;8.596;2022-12-18T13:56:43;-3.40;99.90
21662;DHT22;10992;48.170;8.596;2022-12-18T14:01:50;-3.40;99.90
21662;DHT22;10992;48.170;8.596;2022-12-18T14:04:29;-3.40;99.90
21662;DHT22;10992;48.170;8.596;2022-12-18T14:07:02;-3.50;99.90
21662;DHT22;10992;48.170;8.596;2022-12-18T14:09:34;-3.50;99.90
21662;DHT22;10992;48.170;8.596;2022-12-18T14:12:03;-3.60;99.90
21662;DHT22;10992;48.170;8.596;2022-12-18T14:14:51;-3.60;99.90
21662;DHT22;10992;48.170;8.596;2022-12-18T14:17:22;-3.70;99.90
21662;DHT22;10992;48.170;8.596;2022-12-18T14:19:51;-3.70;99.90
21662;DHT22;10992;48.170;8.596;2022-12-18T14:22:25;-3.80;99.90
21662;DHT22;10992;48.170;8.596;2022-12-18T14:30:41;-3.90;99.90
21662;DHT22;10992;48.170;8.596;2022-12-18T14:33:17;-4.00;99.90
21662;DHT22;10992;48.170;8.596;2022-12-18T14:36:03;-4.00;99.90
21662;DHT22;10992;48.170;8.596;2022-12-18T14:41:15;-4.10;99.90
21662;DHT22;10992;48.170;8.596;2022-12-18T14:43:45;-4.10;99.90
21662;DHT22;10992;48.170;8.596;2022-12-18T14:46:35;-4.10;99.90
21662;DHT22;10992;48.170;8.596;2022-12-18T14:49:26;-4.20;99.90
21662;DHT22;10992;48.170;8.596;2022-12-18T14:52:25;-4.20;99.90
21662;DHT22;10992;48.170;8.596;2022-12-18T14:54:53;-4.20;99.90
21662;DHT22;10992;48.170;8.596;2022-12-18T14:57:25;-4.20;99.90
21662;DHT22;10992;48.170;8.596;2022-12-18T15:00:10;-4.20;99.90
21662;DHT22;10992;48.170;8.596;2022-12-18T15:02:41;-4.20;99.90
21662;DHT22;10992;48.170;8.596;2022-12-18T15:07:59;-4.30;99.90
21662;DHT22;10992;48.170;8.596;2022-12-18T15:10:29;-4.30;99.90
21662;DHT22;10992;48.170;8.596;2022-12-18T15:18:01;-4.40;99.90
21662;DHT22;10992;48.170;8.596;2022-12-18T15:20:31;-4.40;99.90
21662;DHT22;10992;48.170;8.596;2022-12-18T15:22:59;-4.50;99.90
21662;DHT22;10992;48.170;8.596;2022-12-18T15:25:34;-4.50;99.90
21662;DHT22;10992;48.170;8.596;2022-12-18T15:28:03;-4.50;99.90
21662;DHT22;10992;48.170;8.596;2022-12-18T15:31:20;-4.50;99.90
21662;DHT22;10992;48.170;8.596;2022-12-18T15:36:20;-4.60;99.90
21662;DHT22;10992;48.170;8.596;2022-12-18T15:38:54;-4.60;99.90
21662;DHT22;10992;48.170;8.596;2022-12-18T15:41:31;-4.60;99.90
21662;DHT22;10992;48.170;8.596;2022-12-18T15:44:00;-4.60;99.90
21662;DHT22;10992;48.170;8.596;2022-12-18T15:46:27;-4.60;99.90
21662;DHT22;10992;48.170;8.596;2022-12-18T15:48:56;-4.60;99.90
21662;DHT22;10992;48.170;8.596;2022-12-18T15:51:35;-4.70;99.90
21662;DHT22;10992;48.170;8.596;2022-12-18T15:54:13;-4.60;99.90
21662;DHT22;10992;48.170;8.596;2022-12-18T15:56:42;-4.70;99.90
21662;DHT22;10992;48.170;8.596;2022-12-18T15:59:28;-4.60;99.90
21662;DHT22;10992;48.170;8.596;2022-12-18T16:01:56;-4.60;99.90
21662;DHT22;10992;48.170;8.596;2022-12-18T16:04:23;-4.70;99.90
21662;DHT22;10992;48.170;8.596;2022-12-18T16:06:51;-4.60;99.90
21662;DHT22;10992;48.170;8.596;2022-12-18T16:09:40;-4.60;99.90
21662;DHT22;10992;48.170;8.596;2022-12-18T16:12:20;-4.60;99.90
21662;DHT22;10992;48.170;8.596;2022-12-18T16:14:47;-4.50;99.90
21662;DHT22;10992;48.170;8.596;2022-12-18T16:17:15;-4.50;99.90
21662;DHT22;10992;48.170;8.596;2022-12-18T16:19:42;-4.50;99.90
21662;DHT22;10992;48.170;8.596;2022-12-18T16:22:23;-4.40;99.90
21662;DHT22;10992;48.170;8.596;2022-12-18T16:24:52;-4.40;99.90
21662;DHT22;10992;48.170;8.596;2022-12-18T16:27:19;-4.40;99.90
21662;DHT22;10992;48.170;8.596;2022-12-18T16:29:47;-4.40;99.90
21662;DHT22;10992;48.170;8.596;2022-12-18T16:32:18;-4.40;99.90
21662;DHT22;10992;48.170;8.596;2022-12-18T16:34:45;-4.30;99.90
21662;DHT22;10992;48.170;8.596;2022-12-18T16:37:14;-4.30;99.90
21662;DHT22;10992;48.170;8.596;2022-12-18T16:39:42;-4.40;99.90
21662;DHT22;10992;48.170;8.596;2022-12-18T16:42:15;-4.40;99.90
21662;DHT22;10992;48.170;8.596;2022-12-18T16:44:44;-4.40;99.90
21662;DHT22;10992;48.170;8.596;2022-12-18T16:47:11;-4.40;99.90
21662;DHT22;10992;48.170;8.596;2022-12-18T16:49:42;-4.40;99.90
21662;DHT22;10992;48.170;8.596;2022-12-18T16:52:12;-4.40;99.90
21662;DHT22;10992;48.170;8.596;2022-12-18T16:54:39;-4.40;99.90
21662;DHT22;10992;48.170;8.596;2022-12-18T16:57:06;-4.40;99.90
21662;DHT22;10992;48.170;8.596;2022-12-18T16:59:34;-4.40;99.90
21662;DHT22;10992;48.170;8.596;2022-12-18T17:02:01;-4.40;99.90
21662;DHT22;10992;48.170;8.596;2022-12-18T17:04:28;-4.50;99.90
21662;DHT22;10992;48.170;8.596;2022-12-18T17:06:58;-4.40;99.90
21662;DHT22;10992;48.170;8.596;2022-12-18T17:09:25;-4.50;99.90
21662;DHT22;10992;48.170;8.596;2022-12-18T17:11:53;-4.50;99.90
21662;DHT22;10992;48.170;8.596;2022-12-18T17:14:22;-4.50;99.90
21662;DHT22;10992;48.170;8.596;2022-12-18T17:16:50;-4.50;99.90
21662;DHT22;10992;48.170;8.596;2022-12-18T17:19:38;-4.50;99.90
21662;DHT22;10992;48.170;8.596;2022-12-18T17:22:05;-4.50;99.90
21662;DHT22;10992;48.170;8.596;2022-12-18T17:24:34;-4.50;99.90
21662;DHT22;10992;48.170;8.596;2022-12-18T17:27:02;-4.50;99.90
21662;DHT22;10992;48.170;8.596;2022-12-18T17:29:29;-4.50;99.90
21662;DHT22;10992;48.170;8.596;2022-12-18T17:31:56;-4.50;99.90
21662;DHT22;10992;48.170;8.596;2022-12-18T17:34:26;-4.50;99.90
21662;DHT22;10992;48.170;8.596;2022-12-18T17:36:56;-4.50;99.90
21662;DHT22;10992;48.170;8.596;2022-12-18T17:39:23;-4.50;99.90
21662;DHT22;10992;48.170;8.596;2022-12-18T17:41:50;-4.40;99.90
21662;DHT22;10992;48.170;8.596;2022-12-18T17:44:17;-4.40;99.90
21662;DHT22;10992;48.170;8.596;2022-12-18T17:46:44;-4.40;99.90
21662;DHT22;10992;48.170;8.596;2022-12-18T17:49:12;-4.40;99.90
21662;DHT22;10992;48.170;8.596;2022-12-18T17:51:40;-4.40;99.90
21662;DHT22;10992;48.170;8.596;2022-12-18T17:54:09;-4.40;99.90
21662;DHT22;10992;48.170;8.596;2022-12-18T17:56:37;-4.30;99.90